This is the latest recevied weather packets stored in our database for station/object SV1TQE-1. If no packets are shown the sender has not sent any weather packets the latest 10 day(s).
| Time | Temp. | Humidity | Pressure | Rain* | Wind** | Luminosity | Snow |
|---|---|---|---|---|---|---|---|
| 1787653354 | 40° C | 28% | 1018.8 hPa | - | - | - | - |
| 1787652443 | 39.44° C | 28% | 1019 hPa | - | - | - | - |
| 1787651543 | 39.44° C | 28% | 1019.1 hPa | - | - | - | - |
| 1787650624 | 38.89° C | 28% | 1019.3 hPa | - | - | - | - |
| 1787649724 | 39.44° C | 28% | 1019.5 hPa | - | - | - | - |
| 1787648824 | 38.89° C | 28% | 1019.6 hPa | - | - | - | - |
| 1787647924 | 39.44° C | 27% | 1019.6 hPa | - | - | - | - |
| 1787647024 | 38.33° C | 29% | 1019.7 hPa | - | - | - | - |
| 1787646124 | 38.89° C | 28% | 1019.7 hPa | - | - | - | - |
| 1787645224 | 38.89° C | 30% | 1019.8 hPa | - | - | - | - |
| 1787644323 | 38.33° C | 31% | 1019.7 hPa | - | - | - | - |
| 1787643425 | 37.22° C | 31% | 1019.5 hPa | - | - | - | - |
| 1787642523 | 37.22° C | 33% | 1019.4 hPa | - | - | - | - |
| 1787641623 | 36.67° C | 35% | 1019.6 hPa | - | - | - | - |
| 1787640723 | 35° C | 37% | 1019.5 hPa | - | - | - | - |
| 1787639824 | 33.89° C | 40% | 1019.3 hPa | - | - | - | - |
| 1787638923 | 33.33° C | 41% | 1019.3 hPa | - | - | - | - |
| 1787638022 | 32.78° C | 42% | 1019.5 hPa | - | - | - | - |
| 1787637122 | 32.22° C | 43% | 1019.3 hPa | - | - | - | - |
| 1787636222 | 32.22° C | 42% | 1019.3 hPa | - | - | - | - |
| 1787635321 | 33.89° C | 40% | 1019 hPa | - | - | - | - |
| 1787634421 | 33.33° C | 42% | 1019 hPa | - | - | - | - |
| 1787632617 | 31.11° C | 44% | 1018.9 hPa | - | - | - | - |
| 1787631717 | 30° C | 46% | 1018.7 hPa | - | - | - | - |
| 1787630817 | 29.44° C | 48% | 1018.5 hPa | - | - | - | - |
* Rain since midnight (hover to see other rain measurements)
** Current wind speed in m/s (hover to see current wind gust speed)